M I D A S
Marine Information and Data Acquisition System
Tripno 2156 of the Zeeleeuw from 2011-08-02 06:40:21 to 2011-08-02 15:04:15
Back to CruiseResearch ActivitiesStationsMapUnderway DataData graphs

EquipmentUnitsComment
TimeDGPSUTC
LatitudeDGPSDM.mWGS84
LongitudeDGPSDM.mWGS84
HeadingGyrodeg 
SOGDGPSknotsSpeed over ground
COGDGPSdegCourse over ground
DepthEcho soundermeters200 kHz
Missing or incorrect values are displayed as -999
Navigation data collected by the RV Zeeleeuw from 2011-08-02 06:20:20 to 2011-08-02 16:17:02
Time Latitude Longitude Heading SOG COG Depth
2011-08-02 06:21:24 51°13.637 2°56.021 123.9 -999 230 6.7
2011-08-02 06:22:24 51°13.637 2°56.02 124.8 -999 18 6.7
2011-08-02 06:23:23 51°13.637 2°56.02 123.8 -999 24 6.6
2011-08-02 06:24:23 51°13.636 2°56.02 124.4 -999 246 6.6
2011-08-02 06:25:23 51°13.636 2°56.02 124.1 -999 61 6.6
2011-08-02 06:26:23 51°13.636 2°56.019 124.8 -999 355 6.5
2011-08-02 06:27:23 51°13.636 2°56.019 124.4 -999 260 6.5
2011-08-02 06:28:23 51°13.636 2°56.019 124.7 -999 33 6.5
2011-08-02 06:29:23 51°13.637 2°56.019 124.8 -999 80 6.5
2011-08-02 06:30:23 51°13.635 2°56.019 124.8 -999 72 6.4
2011-08-02 06:31:23 51°13.634 2°56.019 124.8 -999 243 6.5
2011-08-02 06:32:22 51°13.634 2°56.02 124.9 -999 259 6.4
2011-08-02 06:33:23 51°13.634 2°56.02 124.9 -999 235 6.4
2011-08-02 06:34:23 51°13.635 2°56.019 125 -999 59 6.4
2011-08-02 06:35:23 51°13.635 2°56.019 125.1 -999 251 6.4
2011-08-02 06:36:23 51°13.636 2°56.019 125.1 -999 53 6.4
2011-08-02 06:37:23 51°13.636 2°56.019 125.2 -999 193 6.4
2011-08-02 06:38:23 51°13.636 2°56.019 125.4 -999 16 6.4
2011-08-02 06:39:22 51°13.636 2°56.018 125.1 -999 50 6.3
2011-08-02 06:40:23 51°13.636 2°56.018 124.4 -999 252 6.4
2011-08-02 06:41:23 51°13.635 2°56.017 126.8 0.1 281 6.4
2011-08-02 06:42:23 51°13.636 2°56.015 129.9 0.1 226 6.5
2011-08-02 06:43:23 51°13.635 2°56.013 135.1 0.1 240 6.3
2011-08-02 06:44:23 51°13.632 2°56.015 140.6 0.6 147 6.5
2011-08-02 06:45:22 51°13.611 2°56.043 140.8 2.6 139 9
2011-08-02 06:46:23 51°13.574 2°56.095 137.2 2.7 136 10.8
2011-08-02 06:47:23 51°13.548 2°56.142 125 2.1 127 11.1
2011-08-02 06:48:23 51°13.536 2°56.19 98.8 2 96 10.3
2011-08-02 06:49:24 51°13.545 2°56.237 59.6 1.6 58 10
2011-08-02 06:50:23 51°13.545 2°56.241 47.1 0.9 226 -999
2011-08-02 06:51:26 51°13.548 2°56.243 17.6 0.6 196 9.4
2011-08-02 06:52:26 51°13.546 2°56.24 350.8 0.3 153 9.1
2011-08-02 06:53:27 51°13.522 2°56.254 341.8 0.5 166 -999
2011-08-02 06:54:26 51°13.545 2°56.19 294.4 4.6 292 -999
2011-08-02 06:55:24 51°13.587 2°56.055 303.1 6.6 302 -999
2011-08-02 06:56:23 51°13.652 2°55.907 307.7 7.1 306 9.8
2011-08-02 06:57:23 51°13.725 2°55.749 310.8 7.7 309 -999
2011-08-02 06:58:25 51°13.83 2°55.623 335.2 7.7 335 -999
2011-08-02 06:59:25 51°13.954 2°55.541 340.6 8.4 337 -999
2011-08-02 07:00:25 51°14.085 2°55.454 339.8 8.6 337 10.3
2011-08-02 07:01:24 51°14.213 2°55.347 333.6 9 331 10.2
2011-08-02 07:02:26 51°14.359 2°55.212 332 10.5 330 4.9
2011-08-02 07:03:24 51°14.505 2°55.055 327.8 11.6 323 10.8
2011-08-02 07:04:22 51°14.654 2°54.846 329.9 12.6 322 10.5
2011-08-02 07:05:22 51°14.825 2°54.65 334.7 12.7 326 10.7
2011-08-02 07:06:22 51°14.989 2°54.435 326.1 12.7 320 10.5
2011-08-02 07:07:23 51°15.147 2°54.204 323 12.5 319 10.5
2011-08-02 07:08:22 51°15.313 2°54.014 331.4 12.6 324 10.6
2011-08-02 07:09:23 51°15.479 2°53.799 332 12.6 325 10.6
2011-08-02 07:10:22 51°15.652 2°53.615 333.7 12.8 326 10.8
2011-08-02 07:11:22 51°15.825 2°53.419 336.3 12.7 329 11.3
2011-08-02 07:12:22 51°16.011 2°53.26 340.3 12.6 330 11.5
2011-08-02 07:13:22 51°16.19 2°53.084 336.9 12.7 328 11
2011-08-02 07:14:23 51°16.381 2°52.935 346.8 12.5 338 10.9
2011-08-02 07:15:22 51°16.567 2°52.793 342.1 12.6 336 10.5
2011-08-02 07:16:23 51°16.764 2°52.678 348.2 12.3 340 8.7
2011-08-02 07:17:22 51°16.954 2°52.586 358.8 12.1 352 8.8
2011-08-02 07:18:22 51°17.152 2°52.544 358.4 12.1 352 8.6
2011-08-02 07:19:22 51°17.352 2°52.493 356.6 12.2 349 9.1
2011-08-02 07:20:22 51°17.551 2°52.424 353.2 12.3 345 9.3
2011-08-02 07:21:22 51°17.746 2°52.329 351.7 12.2 344 9.2
2011-08-02 07:22:22 51°17.942 2°52.244 352.9 12.3 346 9.8
2011-08-02 07:23:22 51°18.142 2°52.172 356.5 12.3 350 10.2
2011-08-02 07:24:22 51°18.342 2°52.118 358.6 12.2 352 10.3
2011-08-02 07:25:22 51°18.544 2°52.067 358.2 12.3 351 10.7
2011-08-02 07:26:22 51°18.743 2°51.986 347.5 12.5 340 11.9
2011-08-02 07:27:22 51°18.938 2°51.876 352.3 12.4 345 12.8
2011-08-02 07:28:22 51°19.137 2°51.783 348.3 12.6 339 13.7
2011-08-02 07:29:22 51°19.333 2°51.669 348.9 12.5 341 14.4
2011-08-02 07:30:22 51°19.531 2°51.565 349.3 12.5 342 14
2011-08-02 07:31:22 51°19.73 2°51.481 355.7 12.3 347 13.7
2011-08-02 07:32:22 51°19.927 2°51.386 348.6 12.5 340 12.7
2011-08-02 07:33:22 51°20.125 2°51.284 351.5 12.5 343 11
2011-08-02 07:34:22 51°20.323 2°51.181 352.2 12.5 344 13.6
2011-08-02 07:35:22 51°20.524 2°51.089 350.5 12.5 342 15.3
2011-08-02 07:36:22 51°20.721 2°50.982 352.1 12.5 344 16.5
2011-08-02 07:37:22 51°20.922 2°50.899 353.2 12.5 344 19.5
2011-08-02 07:38:22 51°21.122 2°50.792 349.6 12.7 341 21.7
2011-08-02 07:39:22 51°21.324 2°50.694 355 12.7 346 22.1
2011-08-02 07:40:22 51°21.526 2°50.596 349.4 12.7 340 22.4
2011-08-02 07:41:22 51°21.728 2°50.499 354.9 12.6 346 21.5
2011-08-02 07:42:22 51°21.928 2°50.396 348.2 12.7 339 21.3
2011-08-02 07:43:22 51°22.13 2°50.301 355 12.7 346 21.7
2011-08-02 07:44:22 51°22.332 2°50.199 348.1 12.8 340 21.8
2011-08-02 07:45:22 51°22.536 2°50.109 354.1 12.7 344 20.2
2011-08-02 07:46:22 51°22.736 2°49.998 348.8 12.7 342 18.9
2011-08-02 07:47:23 51°22.94 2°49.901 354.4 12.6 348 16.3
2011-08-02 07:48:22 51°23.14 2°49.826 352.4 12.6 344 15.2
2011-08-02 07:49:22 51°23.339 2°49.717 348.5 12.6 342 18.3
2011-08-02 07:50:22 51°23.54 2°49.625 354.4 12.4 348 20.3
2011-08-02 07:51:22 51°23.741 2°49.538 348.5 12.6 341 21.4
2011-08-02 07:52:22 51°23.94 2°49.44 354.7 12.5 347 21.1
2011-08-02 07:53:22 51°24.14 2°49.34 348.5 12.7 340 21.7
2011-08-02 07:54:23 51°24.341 2°49.229 344.9 12.7 335 21
2011-08-02 07:55:22 51°24.531 2°49.096 346.3 12.6 336 21
2011-08-02 07:56:23 51°24.724 2°48.949 346.2 12.6 338 18.8
2011-08-02 07:57:22 51°24.914 2°48.82 343.1 12.8 333 22.3
2011-08-02 07:58:23 51°25.109 2°48.674 346.3 12.7 337 24.9
2011-08-02 07:59:22 51°25.305 2°48.576 354.1 12.5 344 27.9
2011-08-02 08:00:22 51°25.507 2°48.515 3.9 12.2 356 24.2
2011-08-02 08:01:22 51°25.706 2°48.48 0.7 11.9 350 22.6
2011-08-02 08:02:22 51°25.876 2°48.447 11.3 8.8 1 22.4
2011-08-02 08:03:22 51°25.969 2°48.491 49.3 3.8 40 22.6
2011-08-02 08:04:22 51°25.999 2°48.537 63 1.1 54 22.3
2011-08-02 08:05:23 51°25.998 2°48.543 81.7 0.3 193 22.5
2011-08-02 08:06:22 51°25.992 2°48.535 82.5 0.6 232 22.6
2011-08-02 08:07:22 51°25.985 2°48.519 80.7 0.8 245 22.2
2011-08-02 08:08:22 51°25.978 2°48.497 78.3 1 245 22.6
2011-08-02 08:09:22 51°25.972 2°48.471 77 1.1 249 22.4
2011-08-02 08:10:22 51°25.964 2°48.443 75.4 1.2 249 22.7
2011-08-02 08:11:22 51°25.957 2°48.412 73.8 1.3 249 22.5
2011-08-02 08:12:23 51°25.949 2°48.379 73.2 1.4 250 22.4
2011-08-02 08:13:22 51°25.942 2°48.348 73 0.6 243 22.2
2011-08-02 08:14:22 51°25.96 2°48.399 58.4 4.6 52 22.3
2011-08-02 08:15:22 51°26.02 2°48.498 48.5 4.1 36 22.2
2011-08-02 08:16:22 51°26.058 2°48.509 21 1.4 330 22.3
2011-08-02 08:17:22 51°26.067 2°48.487 41 0.9 289 22.4
2011-08-02 08:18:22 51°26.07 2°48.461 42.9 1 273 22.6
2011-08-02 08:19:22 51°26.069 2°48.432 43.7 1.2 265 22.5
2011-08-02 08:20:22 51°26.066 2°48.4 42.9 1.3 260 22.6
2011-08-02 08:21:23 51°26.06 2°48.364 41.3 1.5 255 22.1
2011-08-02 08:22:22 51°26.054 2°48.327 42.5 1.5 254 22
2011-08-02 08:23:23 51°26.046 2°48.288 45.2 1.6 252 22.4
2011-08-02 08:24:22 51°26.037 2°48.25 45.4 1.6 250 22.2
2011-08-02 08:25:23 51°26.027 2°48.209 44.4 1.7 247 20.1
2011-08-02 08:26:22 51°26.026 2°48.182 43.5 2.2 23 20.3
2011-08-02 08:27:22 51°26.1 2°48.278 50.1 7.9 49 18.9
2011-08-02 08:28:22 51°26.159 2°48.481 69.5 8.8 71 21.8
2011-08-02 08:29:22 51°26.156 2°48.712 92.3 8.8 94 21
2011-08-02 08:30:23 51°26.145 2°48.883 106.6 3.6 130 22.6
2011-08-02 08:31:22 51°26.11 2°48.889 154.8 1.8 229 22.2
2011-08-02 08:32:23 51°26.094 2°48.847 183.1 1.9 241 7.5
2011-08-02 08:33:23 51°26.08 2°48.803 200.1 1.9 244 22.3
2011-08-02 08:34:23 51°26.066 2°48.758 212.3 2 245 22.6
2011-08-02 08:35:22 51°26.052 2°48.714 219.5 1.9 243 22.7
2011-08-02 08:36:23 51°26.036 2°48.667 221.5 2.1 240 22.8
2011-08-02 08:37:22 51°26.007 2°48.613 193.6 3 221 23.2
2011-08-02 08:38:22 51°25.973 2°48.561 189.5 2.5 231 22.7
2011-08-02 08:39:23 51°25.946 2°48.508 196.2 2.6 232 22.6
2011-08-02 08:40:23 51°25.921 2°48.454 201 2.5 234 22.7
2011-08-02 08:41:23 51°25.887 2°48.399 188.6 4.1 207 22.6
2011-08-02 08:42:22 51°25.833 2°48.438 94.3 4.6 102 22.7
2011-08-02 08:43:22 51°25.896 2°48.605 50.4 9.6 44 23.1
2011-08-02 08:44:22 51°26.018 2°48.79 57.4 10.1 55 22.3
2011-08-02 08:45:22 51°26.163 2°48.895 7.9 10.9 355 22.2
2011-08-02 08:46:22 51°26.346 2°48.883 17.3 9.9 11 20.8
2011-08-02 08:47:22 51°26.41 2°48.935 58.7 1.4 54 21.1
2011-08-02 08:48:23 51°26.412 2°48.954 74.1 0.5 96 20.4
2011-08-02 08:49:22 51°26.413 2°48.959 56.3 0.3 14 20.8
2011-08-02 08:50:23 51°26.417 2°48.959 60.4 0.1 20 20.1
2011-08-02 08:51:23 51°26.415 2°48.96 72.4 0.3 178 20.6
2011-08-02 08:52:23 51°26.409 2°48.959 75.9 0.4 195 20.7
2011-08-02 08:53:22 51°26.401 2°48.952 77.7 0.7 218 21.5
2011-08-02 08:54:22 51°26.391 2°48.938 75.5 0.7 222 22
2011-08-02 08:55:22 51°26.387 2°48.927 55.8 0.6 258 21.4
2011-08-02 08:56:22 51°26.385 2°48.912 54.5 0.3 272 20.7
2011-08-02 08:57:22 51°26.381 2°48.905 72.7 0.4 199 20.8
2011-08-02 08:58:22 51°26.378 2°48.905 58.8 0.1 354 20.8
2011-08-02 08:59:23 51°26.386 2°48.897 36.5 0.8 319 20.4
2011-08-02 09:00:22 51°26.397 2°48.879 29.7 1 309 20.9
2011-08-02 09:01:23 51°26.404 2°48.858 37.9 0.8 281 20.9
2011-08-02 09:02:22 51°26.404 2°48.835 39.9 0.9 263 20
2011-08-02 09:03:22 51°26.403 2°48.815 42.7 0.6 269 20.4
2011-08-02 09:04:22 51°26.403 2°48.801 43.6 0.4 272 20.3
2011-08-02 09:05:22 51°26.405 2°48.79 40.5 0.5 306 20.3
2011-08-02 09:06:22 51°26.41 2°48.78 35.7 0.6 315 20.4
2011-08-02 09:07:22 51°26.419 2°48.771 33.5 0.7 337 20.8
2011-08-02 09:08:23 51°26.429 2°48.764 33.2 0.8 339 20.4
2011-08-02 09:09:22 51°26.441 2°48.759 32.3 0.9 352 19
2011-08-02 09:10:23 51°26.457 2°48.755 30.1 1 350 20
2011-08-02 09:11:22 51°26.474 2°48.747 26.6 1.1 341 20.4
2011-08-02 09:12:23 51°26.492 2°48.735 23.6 1.1 336 20.4
2011-08-02 09:13:22 51°26.506 2°48.718 22.3 0.9 308 20.7
2011-08-02 09:14:22 51°26.511 2°48.708 49.7 -999 237 20.5
2011-08-02 09:15:23 51°26.505 2°48.708 64.6 0.5 187 20.4
2011-08-02 09:16:22 51°26.495 2°48.704 63.7 0.8 203 20.1
2011-08-02 09:17:23 51°26.482 2°48.691 63.2 1 213 19.6
2011-08-02 09:18:22 51°26.467 2°48.674 62 1.2 222 19.9
2011-08-02 09:19:23 51°26.452 2°48.652 58.8 0.9 228 19
2011-08-02 09:20:22 51°26.452 2°48.648 42.7 0.2 10 19.1
2011-08-02 09:21:22 51°26.454 2°48.646 41.5 0.2 273 19.1
2011-08-02 09:22:22 51°26.455 2°48.645 44.5 0.1 29 19.1
2011-08-02 09:23:22 51°26.455 2°48.646 46.5 0.1 246 19.1
2011-08-02 09:24:22 51°26.454 2°48.645 47.9 0.1 149 19.1
2011-08-02 09:25:22 51°26.453 2°48.647 48.6 -999 119 19.3
2011-08-02 09:26:23 51°26.452 2°48.646 47.3 -999 165 19.3
2011-08-02 09:27:22 51°26.452 2°48.647 45.2 -999 332 19.3
2011-08-02 09:28:22 51°26.453 2°48.646 43.6 0.1 329 19.2
2011-08-02 09:29:22 51°26.454 2°48.645 42.2 0.1 321 19.2
2011-08-02 09:30:22 51°26.456 2°48.644 40.7 0.1 346 19.3
2011-08-02 09:31:22 51°26.458 2°48.642 39.1 0.1 331 19.4
2011-08-02 09:32:22 51°26.459 2°48.641 40.2 0.1 336 19.6
2011-08-02 09:33:22 51°26.46 2°48.641 42 -999 125 19.6
2011-08-02 09:34:22 51°26.459 2°48.641 42.5 -999 247 19.6
2011-08-02 09:35:23 51°26.459 2°48.641 43.5 0.1 132 19.6
2011-08-02 09:36:22 51°26.458 2°48.641 42.2 -999 225 19.5
2011-08-02 09:37:23 51°26.459 2°48.641 41.6 -999 8 19.5
2011-08-02 09:38:22 51°26.46 2°48.641 41.6 -999 45 19.5
2011-08-02 09:39:23 51°26.459 2°48.642 42.5 0.1 258 19.6
2011-08-02 09:40:22 51°26.459 2°48.642 42.2 -999 7 19.4
2011-08-02 09:41:22 51°26.459 2°48.643 40.7 -999 329 19.6
2011-08-02 09:42:22 51°26.46 2°48.643 41.9 -999 198 19.6
2011-08-02 09:43:22 51°26.459 2°48.643 41 -999 317 19.6
2011-08-02 09:44:23 51°26.459 2°48.643 41.9 -999 30 19.6
2011-08-02 09:45:22 51°26.459 2°48.643 41.2 -999 283 19.5
2011-08-02 09:46:22 51°26.459 2°48.642 40.4 0.1 347 19.6
2011-08-02 09:47:22 51°26.46 2°48.642 41.5 -999 24 19.7
2011-08-02 09:48:22 51°26.459 2°48.642 41.7 0.1 232 19.6
2011-08-02 09:49:23 51°26.459 2°48.642 41.3 -999 126 19.6
2011-08-02 09:50:22 51°26.459 2°48.642 41.5 -999 94 19.8
2011-08-02 09:51:22 51°26.458 2°48.642 41.4 -999 167 19.6
2011-08-02 09:52:23 51°26.458 2°48.643 41.5 -999 119 19.5
2011-08-02 09:53:22 51°26.457 2°48.643 40.5 0.1 275 19.5
2011-08-02 09:54:22 51°26.459 2°48.642 39 0.1 31 19.7
2011-08-02 09:55:23 51°26.459 2°48.642 38.6 0.1 295 19.7
2011-08-02 09:56:22 51°26.459 2°48.642 40.1 -999 151 19.7
2011-08-02 09:57:22 51°26.459 2°48.642 39.6 0.1 158 19.8
2011-08-02 09:58:22 51°26.459 2°48.643 40.5 -999 88 19.8
2011-08-02 09:59:22 51°26.458 2°48.642 39.9 -999 13 19.6
2011-08-02 10:00:22 51°26.458 2°48.643 40.2 -999 208 19.6
2011-08-02 10:01:22 51°26.458 2°48.643 40.5 -999 263 19.6
2011-08-02 10:02:22 51°26.458 2°48.642 38.7 -999 281 19.8
2011-08-02 10:03:22 51°26.459 2°48.642 38.9 -999 252 19.7
2011-08-02 10:04:23 51°26.459 2°48.641 38.7 0.1 16 19.8
2011-08-02 10:05:22 51°26.458 2°48.642 40.7 0.1 161 19.8
2011-08-02 10:06:22 51°26.457 2°48.642 39.4 -999 122 19.6
2011-08-02 10:07:22 51°26.457 2°48.643 40.4 -999 140 19.8
2011-08-02 10:08:22 51°26.456 2°48.644 40.5 0.1 155 19.7
2011-08-02 10:09:22 51°26.456 2°48.643 37.6 -999 354 19.6
2011-08-02 10:10:23 51°26.457 2°48.643 38.9 0.1 83 19.7
2011-08-02 10:11:22 51°26.457 2°48.642 37.7 -999 281 19.7
2011-08-02 10:12:22 51°26.458 2°48.643 39.6 -999 133 19.8
2011-08-02 10:13:23 51°26.457 2°48.643 39.6 0.1 210 19.7
2011-08-02 10:14:22 51°26.457 2°48.643 37.8 0.1 21 19.7
2011-08-02 10:15:22 51°26.457 2°48.644 39.5 -999 160 19.7
2011-08-02 10:16:22 51°26.456 2°48.644 39.3 0.1 157 19.7
2011-08-02 10:17:22 51°26.456 2°48.644 36.7 0.1 329 19.7
2011-08-02 10:18:22 51°26.458 2°48.644 37.1 0.2 41 19.8
2011-08-02 10:19:22 51°26.464 2°48.652 38.2 0.4 33 20.1
2011-08-02 10:20:22 51°26.467 2°48.663 44.1 0.5 75 20.5
2011-08-02 10:21:22 51°26.468 2°48.677 48.4 0.3 92 20.4
2011-08-02 10:22:23 51°26.465 2°48.675 39.2 0.5 231 20.4
2011-08-02 10:23:22 51°26.458 2°48.661 36.1 0.9 230 19.7
2011-08-02 10:24:22 51°26.454 2°48.655 51 0.9 80 19.7
2011-08-02 10:25:22 51°26.436 2°48.712 107.2 4 136 20.5
2011-08-02 10:26:22 51°26.349 2°48.744 174.1 6.6 189 21.3
2011-08-02 10:27:22 51°26.229 2°48.627 227.1 10.1 229 20.4
2011-08-02 10:28:22 51°26.117 2°48.365 239.6 13.6 238 22.8
2011-08-02 10:29:22 51°25.998 2°48.039 247.1 14.3 244 22.7
2011-08-02 10:30:22 51°25.874 2°47.71 238.1 14.4 237 23.5
2011-08-02 10:31:22 51°25.74 2°47.392 238.4 14.4 237 24.9
2011-08-02 10:32:22 51°25.613 2°47.066 238.4 14.5 236 24.4
2011-08-02 10:33:22 51°25.481 2°46.743 236.7 14.5 234 24.8
2011-08-02 10:34:22 51°25.344 2°46.427 238.9 14.5 237 25.3
2011-08-02 10:35:22 51°25.204 2°46.113 234.6 14.5 233 24.9
2011-08-02 10:36:22 51°25.073 2°45.79 240.5 14.4 239 25.4
2011-08-02 10:37:22 51°24.941 2°45.468 239.5 14.5 238 25.8
2011-08-02 10:38:22 51°24.802 2°45.15 236.2 14.6 235 24.9
2011-08-02 10:39:22 51°24.672 2°44.824 239.5 14.5 237 26.7
2011-08-02 10:40:22 51°24.532 2°44.507 234.6 14.8 235 27
2011-08-02 10:41:22 51°24.402 2°44.171 239 15 239 25.5
2011-08-02 10:42:22 51°24.264 2°43.845 234.5 14.8 235 25.8
2011-08-02 10:43:22 51°24.133 2°43.51 237.2 14.8 236 23.7
2011-08-02 10:44:22 51°23.995 2°43.185 239.2 14.8 238 26.1
2011-08-02 10:45:22 51°23.867 2°42.851 239.9 14.6 242 26.5
2011-08-02 10:46:22 51°23.786 2°42.489 255.2 14.5 251 26
2011-08-02 10:47:22 51°23.709 2°42.123 254.7 14.4 254 26.7
2011-08-02 10:48:22 51°23.678 2°41.752 268.4 14 263 25.7
2011-08-02 10:49:22 51°23.639 2°41.382 262.8 14.1 259 28.2
2011-08-02 10:50:22 51°23.609 2°41.012 268.5 14 263 27.8
2011-08-02 10:51:22 51°23.582 2°40.642 266.4 14 261 29.5
2011-08-02 10:52:22 51°23.513 2°40.29 239.5 13.9 234 29.5
2011-08-02 10:53:22 51°23.312 2°40.15 175.3 13.6 181 30.1
2011-08-02 10:54:22 51°23.083 2°40.157 172.1 13.8 178 29.5
2011-08-02 10:55:22 51°22.854 2°40.145 177.1 13.8 183 29.3
2011-08-02 10:56:22 51°22.626 2°40.141 171.9 13.7 181 29.9
2011-08-02 10:57:22 51°22.398 2°40.074 187 13.9 192 27.5
2011-08-02 10:58:22 51°22.168 2°40.008 184.7 14.1 192 27.6
2011-08-02 10:59:22 51°21.939 2°39.929 186.7 14.2 193 28.4
2011-08-02 11:00:22 51°21.708 2°39.863 181.5 14.2 188 27.4
2011-08-02 11:01:22 51°21.483 2°39.757 201.3 14.2 207 26.7
2011-08-02 11:02:22 51°21.314 2°39.506 241.5 14.1 244 25.6
2011-08-02 11:03:22 51°21.241 2°39.15 256.6 14.2 254 25.2
2011-08-02 11:04:22 51°21.171 2°38.79 255.3 14.1 255 25.6
2011-08-02 11:05:22 51°21.115 2°38.427 257.3 14 254 25.2
2011-08-02 11:06:22 51°21.048 2°38.068 255.3 14.1 253 25
2011-08-02 11:07:22 51°20.988 2°37.709 260.2 14 257 25
2011-08-02 11:08:22 51°20.935 2°37.346 257.7 14 256 24.7
2011-08-02 11:09:22 51°20.87 2°36.987 255.1 14 253 22.1
2011-08-02 11:10:22 51°20.812 2°36.625 260.7 14.1 258 22.4
2011-08-02 11:11:22 51°20.757 2°36.263 255.4 14 253 22.6
2011-08-02 11:12:22 51°20.697 2°35.903 260 14 257 23.7
2011-08-02 11:13:22 51°20.638 2°35.542 256.5 14 254 27.5
2011-08-02 11:14:22 51°20.581 2°35.182 260.6 13.9 257 28.4
2011-08-02 11:15:22 51°20.518 2°34.824 254.1 14.1 253 31.8
2011-08-02 11:16:22 51°20.463 2°34.463 258.7 14 256 31.4
2011-08-02 11:17:22 51°20.398 2°34.103 257.8 14 257 31.2
2011-08-02 11:18:22 51°20.344 2°33.74 258.1 14.1 255 31.1
2011-08-02 11:19:22 51°20.273 2°33.381 256.8 14 255 33.9
2011-08-02 11:20:22 51°20.214 2°33.021 257.5 14.1 253 32.2
2011-08-02 11:21:22 51°20.142 2°32.665 255.5 14.1 253 31.1
2011-08-02 11:22:22 51°20.084 2°32.304 259.1 14 255 31
2011-08-02 11:23:22 51°20.013 2°31.949 255.5 14 253 30.8
2011-08-02 11:24:22 51°19.993 2°31.588 278.8 13.7 274 30
2011-08-02 11:25:22 51°20.005 2°31.224 277.4 13.7 273 24.7
2011-08-02 11:26:22 51°20.02 2°30.862 279.5 13.5 274 17.7
2011-08-02 11:27:22 51°20.061 2°30.521 292 12.9 287 13.3
2011-08-02 11:28:22 51°20.121 2°30.192 287.5 12.9 283 13.4
2011-08-02 11:29:22 51°20.135 2°29.863 263.4 9.9 256 25.2
2011-08-02 11:30:22 51°20.064 2°29.745 193.2 4.8 192 27.6
2011-08-02 11:31:22 51°20.007 2°29.787 113 3.1 128 20.5
2011-08-02 11:32:22 51°19.99 2°29.815 88.2 0.7 163 16
2011-08-02 11:33:22 51°19.98 2°29.817 74.1 0.5 178 16.4
2011-08-02 11:34:22 51°19.972 2°29.816 67.9 0.5 192 16.2
2011-08-02 11:35:22 51°19.963 2°29.813 67.1 0.5 198 16.2
2011-08-02 11:36:22 51°19.953 2°29.808 70 0.6 199 15.9
2011-08-02 11:37:22 51°19.943 2°29.802 75.7 0.7 194 15.5
2011-08-02 11:38:22 51°19.933 2°29.797 83.6 0.7 197 14.2
2011-08-02 11:39:22 51°19.923 2°29.791 92.3 0.7 197 13.2
2011-08-02 11:40:22 51°19.913 2°29.785 101.2 0.7 202 12.4
2011-08-02 11:41:22 51°19.904 2°29.777 111.9 0.6 212 14.3
2011-08-02 11:42:22 51°19.896 2°29.768 122.9 0.6 219 15.3
2011-08-02 11:43:22 51°19.889 2°29.759 133.6 0.5 222 16
2011-08-02 11:44:22 51°19.884 2°29.751 143.5 0.4 223 16.4
2011-08-02 11:45:23 51°19.879 2°29.744 154.5 0.4 224 16.8
2011-08-02 11:46:22 51°19.875 2°29.739 165.4 0.2 210 17
2011-08-02 11:47:22 51°19.873 2°29.736 174.1 0.1 199 17.3
2011-08-02 11:48:22 51°19.869 2°29.735 180.9 0.3 179 17.4
2011-08-02 11:49:23 51°19.864 2°29.735 185.1 0.4 174 17.5
2011-08-02 11:50:22 51°19.857 2°29.736 187.5 0.4 172 17.7
2011-08-02 11:51:23 51°19.85 2°29.739 186.8 0.5 165 18
2011-08-02 11:52:22 51°19.842 2°29.743 180.9 0.5 157 18.2
2011-08-02 11:53:22 51°19.834 2°29.75 171.9 0.6 151 17.7
2011-08-02 11:54:22 51°19.826 2°29.759 164.5 0.6 148 17.2
2011-08-02 11:55:23 51°19.818 2°29.769 160.5 0.6 139 16.5
2011-08-02 11:56:23 51°19.81 2°29.781 157.2 0.7 135 14.5
2011-08-02 11:57:23 51°19.803 2°29.797 153.6 0.8 128 14.1
2011-08-02 11:58:23 51°19.796 2°29.813 156.8 0.7 129 16.2
2011-08-02 11:59:22 51°19.789 2°29.826 156.1 0.7 124 16.7
2011-08-02 12:00:23 51°19.782 2°29.842 152.6 0.7 124 16.5
2011-08-02 12:01:22 51°19.769 2°29.87 132.2 2.8 121 14.4
2011-08-02 12:02:22 51°19.772 2°29.97 57.5 4.7 59 13
2011-08-02 12:03:22 51°19.863 2°30.025 2.3 7.7 7 15.2
2011-08-02 12:04:22 51°19.979 2°30.069 14.6 5.7 21 15.6
2011-08-02 12:05:23 51°20.043 2°30.084 332.6 2.8 338 15.2
2011-08-02 12:06:22 51°20.054 2°30.075 284 1.1 112 15.3
2011-08-02 12:07:26 51°20.047 2°30.098 257.8 0.8 131 -999
2011-08-02 12:08:24 51°20.037 2°30.114 239 0.9 139 13.6
2011-08-02 12:09:23 51°20.021 2°30.125 228.4 1.2 173 12.3
2011-08-02 12:10:22 51°20 2°30.123 242.8 1.3 209 12.8
2011-08-02 12:11:22 51°19.987 2°30.084 270.7 2.4 259 15.7
2011-08-02 12:12:22 51°19.988 2°30.012 280.6 2.4 273 15.9
2011-08-02 12:13:22 51°19.986 2°29.984 266.8 0.4 173 15.5
2011-08-02 12:14:22 51°19.978 2°29.987 258 0.5 171 15.7
2011-08-02 12:15:22 51°19.969 2°29.989 263.4 0.5 173 15.6
2011-08-02 12:16:23 51°19.961 2°29.99 274.5 0.4 178 15.8
2011-08-02 12:17:22 51°19.958 2°29.99 285.2 0.1 160 15.9
2011-08-02 12:18:23 51°19.957 2°29.992 293.9 0.1 69 16.1
2011-08-02 12:19:22 51°19.958 2°29.997 300.6 0.3 61 16
2011-08-02 12:20:22 51°19.961 2°30.004 304.8 0.4 59 15.6
2011-08-02 12:21:22 51°19.964 2°30.016 307.3 0.5 73 15.4
2011-08-02 12:22:23 51°19.969 2°30.032 315.1 0.7 62 13.3
2011-08-02 12:23:23 51°19.976 2°30.049 325.5 0.9 53 14.5
2011-08-02 12:24:23 51°19.986 2°30.068 334.6 1 48 15.7
2011-08-02 12:25:23 51°19.997 2°30.089 342.6 1.1 50 15.6
2011-08-02 12:26:22 51°20.01 2°30.117 347.9 1.6 58 12.8
2011-08-02 12:27:23 51°20.024 2°30.153 352.8 1.5 57 15.1
2011-08-02 12:28:22 51°20.038 2°30.187 357.9 1.6 58 15.9
2011-08-02 12:29:22 51°20.052 2°30.224 1.7 1.7 60 15.9
2011-08-02 12:30:23 51°20.063 2°30.262 4.1 1.5 70 16.6
2011-08-02 12:31:23 51°20.07 2°30.303 4.4 1.7 77 13.6
2011-08-02 12:32:22 51°20.075 2°30.343 2.5 1.5 81 16.4
2011-08-02 12:33:22 51°20.076 2°30.381 0.4 1.4 87 16.1
2011-08-02 12:34:22 51°20.085 2°30.423 7.1 2.2 60 14.7
2011-08-02 12:35:22 51°20.11 2°30.502 60.3 4.7 76 14.6
2011-08-02 12:36:23 51°20.11 2°30.66 93.3 6.7 94 17.9
2011-08-02 12:37:23 51°20.106 2°30.848 92.8 6.8 90 20.3
2011-08-02 12:38:22 51°20.139 2°30.971 31.8 3.9 49 21.1
2011-08-02 12:39:22 51°20.184 2°31.006 329.9 2.6 350 22.1
2011-08-02 12:40:22 51°20.201 2°30.987 273 0.2 75 21.3
2011-08-02 12:41:23 51°20.199 2°31.005 243.9 1 105 21.7
2011-08-02 12:42:23 51°20.194 2°31.031 236.4 1 103 21.2
2011-08-02 12:43:23 51°20.193 2°31.044 259.9 0.1 312 19.4
2011-08-02 12:44:22 51°20.196 2°31.037 276.4 0.3 312 19.1
2011-08-02 12:45:23 51°20.201 2°31.034 285 0.3 359 19
2011-08-02 12:46:22 51°20.206 2°31.036 287.3 0.3 9 19.5
2011-08-02 12:47:22 51°20.209 2°31.034 284.2 0.3 330 19.7
2011-08-02 12:48:22 51°20.212 2°31.029 281.3 0.2 323 19.4
2011-08-02 12:49:23 51°20.214 2°31.026 278.8 0.1 297 19.3
2011-08-02 12:50:23 51°20.214 2°31.025 278.1 0.1 61 19.4
2011-08-02 12:51:23 51°20.214 2°31.026 275.1 0.1 78 19.3
2011-08-02 12:52:23 51°20.214 2°31.028 274.6 -999 121 19.4
2011-08-02 12:53:23 51°20.214 2°31.029 274 -999 108 19.4
2011-08-02 12:54:23 51°20.214 2°31.029 273.4 -999 128 19.5
2011-08-02 12:55:22 51°20.214 2°31.029 273 0.1 283 19.6
2011-08-02 12:56:22 51°20.214 2°31.029 273.7 0.1 340 19.6
2011-08-02 12:57:22 51°20.214 2°31.028 272.7 0.1 307 19.5
2011-08-02 12:58:22 51°20.214 2°31.028 273.2 -999 316 19.6
2011-08-02 12:59:23 51°20.214 2°31.027 271.3 0.1 245 19.5
2011-08-02 13:00:22 51°20.215 2°31.028 271.3 -999 35 19.6
2011-08-02 13:01:23 51°20.215 2°31.028 270.2 -999 247 19.6
2011-08-02 13:02:22 51°20.215 2°31.028 270.3 -999 183 19.5
2011-08-02 13:03:23 51°20.215 2°31.028 270.7 0.1 350 19.5
2011-08-02 13:04:22 51°20.217 2°31.027 273.3 0.2 355 19.7
2011-08-02 13:05:22 51°20.218 2°31.025 270 0.1 284 19.9
2011-08-02 13:06:22 51°20.22 2°31.022 270.1 0.2 317 19.5
2011-08-02 13:07:22 51°20.22 2°31.021 266.4 -999 264 19.4
2011-08-02 13:08:23 51°20.221 2°31.02 266.5 -999 280 19.4
2011-08-02 13:09:22 51°20.221 2°31.019 264.4 -999 72 19.4
2011-08-02 13:10:22 51°20.221 2°31.02 263.6 -999 47 19.5
2011-08-02 13:11:22 51°20.22 2°31.021 262.2 -999 173 19.5
2011-08-02 13:12:23 51°20.22 2°31.022 262.5 -999 135 19.5
2011-08-02 13:13:22 51°20.22 2°31.023 265 -999 60 19.6
2011-08-02 13:14:23 51°20.22 2°31.023 264.1 0.1 341 19.7
2011-08-02 13:15:22 51°20.22 2°31.022 263 -999 259 19.5
2011-08-02 13:16:22 51°20.22 2°31.022 262.8 0.1 36 19.4
2011-08-02 13:17:22 51°20.221 2°31.022 264.1 -999 34 19.5
2011-08-02 13:18:22 51°20.221 2°31.023 260.2 0.1 141 19.8
2011-08-02 13:19:22 51°20.22 2°31.026 259.6 0.1 119 20
2011-08-02 13:20:22 51°20.216 2°31.02 254.1 0.6 230 19.1
2011-08-02 13:21:22 51°20.208 2°31.01 249.1 0.6 204 21.5
2011-08-02 13:22:22 51°20.202 2°31.007 247.1 0.3 142 22
2011-08-02 13:23:22 51°20.2 2°31.021 248.2 0.7 89 21.7
2011-08-02 13:24:22 51°20.195 2°31.037 221.7 1.2 143 20.2
2011-08-02 13:25:23 51°20.16 2°31.089 152.6 4.6 126 22.3
2011-08-02 13:26:22 51°20.074 2°31.244 143.8 10.8 135 24.7
2011-08-02 13:27:22 51°19.922 2°31.464 146.6 13 137 32.3
2011-08-02 13:28:23 51°19.777 2°31.729 134.4 13 129 33.1
2011-08-02 13:29:22 51°19.63 2°31.96 145.3 12.7 137 34.1
2011-08-02 13:30:23 51°19.48 2°32.208 141.5 12.6 133 33.4
2011-08-02 13:31:22 51°19.328 2°32.425 145.9 12.5 137 33.2
2011-08-02 13:32:23 51°19.178 2°32.664 140.7 12.6 135 32.3
2011-08-02 13:33:22 51°19.026 2°32.888 145.2 12.7 138 32.3
2011-08-02 13:34:22 51°18.879 2°33.133 137 12.9 131 31.3
2011-08-02 13:35:22 51°18.738 2°33.385 140.8 12.5 135 26.8
2011-08-02 13:36:22 51°18.588 2°33.622 139.9 12.9 132 18.9
2011-08-02 13:37:23 51°18.441 2°33.881 142.1 12.9 135 21.7
2011-08-02 13:38:23 51°18.29 2°34.125 140.2 12.9 133 28.6
2011-08-02 13:39:22 51°18.151 2°34.38 141 12.8 134 30.7
2011-08-02 13:40:22 51°17.995 2°34.605 145.2 12.6 137 30.7
2011-08-02 13:41:22 51°17.849 2°34.847 142.7 12.7 132 15.6
2011-08-02 13:42:22 51°17.692 2°35.08 145.6 12.9 139 19.3
2011-08-02 13:43:22 51°17.528 2°35.31 146 13 140 16
2011-08-02 13:44:22 51°17.37 2°35.55 140.9 13.2 135 14.8
2011-08-02 13:45:23 51°17.208 2°35.796 144.8 13.1 139 19.6
2011-08-02 13:46:22 51°17.046 2°36.012 145.6 13 139 26.1
2011-08-02 13:47:22 51°16.89 2°36.252 142.9 13.1 137 29.9
2011-08-02 13:48:22 51°16.727 2°36.448 160.6 11.1 155 29.4
2011-08-02 13:49:22 51°16.583 2°36.562 170.8 7.2 157 29.6
2011-08-02 13:50:22 51°16.551 2°36.695 98.2 5.5 78 29.6
2011-08-02 13:51:22 51°16.607 2°36.803 24.7 4.8 32 29.4
2011-08-02 13:52:22 51°16.652 2°36.845 351.4 1.8 44 29.7
2011-08-02 13:53:25 51°16.665 2°36.888 323.9 1.8 62 29.5
2011-08-02 13:54:23 51°16.679 2°36.927 319.6 1.7 57 29.3
2011-08-02 13:55:23 51°16.695 2°36.964 314.6 1.7 54 29.2
2011-08-02 13:56:22 51°16.713 2°37 306.9 1.7 52 29.1
2011-08-02 13:57:22 51°16.731 2°37.035 300.1 1.8 50 29.4
2011-08-02 13:58:22 51°16.75 2°37.069 296.9 1.7 48 29.5
2011-08-02 13:59:22 51°16.77 2°37.102 294.5 1.7 48 29.7
2011-08-02 14:00:22 51°16.789 2°37.135 293.2 1.6 47 29.9
2011-08-02 14:01:22 51°16.808 2°37.166 292.1 1.6 45 30.3
2011-08-02 14:02:22 51°16.827 2°37.196 291.7 1.6 46 30.5
2011-08-02 14:03:22 51°16.846 2°37.226 293.3 1.6 44 31.1
2011-08-02 14:04:22 51°16.865 2°37.254 297.2 1.6 43 31.3
2011-08-02 14:05:22 51°16.884 2°37.283 302.7 1.6 43 31.3
2011-08-02 14:06:22 51°16.904 2°37.312 306.5 1.6 42 30.8
2011-08-02 14:07:22 51°16.924 2°37.341 308.4 1.6 40 30.6
2011-08-02 14:08:22 51°16.946 2°37.366 305.7 1.7 34 30.3
2011-08-02 14:09:22 51°16.969 2°37.392 310.7 1.7 35 30.9
2011-08-02 14:10:22 51°16.992 2°37.419 316.6 1.7 35 31
2011-08-02 14:11:22 51°17.014 2°37.446 321.1 1.7 38 30.8
2011-08-02 14:12:22 51°17.045 2°37.457 301.3 2.7 339 30.4
2011-08-02 14:13:22 51°17.056 2°37.413 222.9 1.9 216 30.2
2011-08-02 14:14:22 51°16.98 2°37.367 207.4 6.7 204 31
2011-08-02 14:15:22 51°16.886 2°37.251 224.6 7.4 223 31
2011-08-02 14:16:22 51°16.795 2°37.115 222.4 7.5 220 29.7
2011-08-02 14:17:22 51°16.696 2°36.989 223.3 7.7 223 29.1
2011-08-02 14:18:22 51°16.626 2°36.886 213.6 3.5 207 29.4
2011-08-02 14:19:22 51°16.593 2°36.857 226.2 1.4 230 29.4
2011-08-02 14:20:22 51°16.589 2°36.84 238.9 0.5 300 29.2
2011-08-02 14:21:22 51°16.598 2°36.832 246.8 0.8 344 29.3
2011-08-02 14:22:22 51°16.612 2°36.829 254.9 0.9 -999 29.3
2011-08-02 14:23:22 51°16.63 2°36.831 263.6 1.2 8 29.3
2011-08-02 14:24:22 51°16.651 2°36.837 273.9 1.3 13 29.5
2011-08-02 14:25:22 51°16.674 2°36.847 285.9 1.6 17 29.4
2011-08-02 14:26:22 51°16.698 2°36.861 296.7 1.6 22 29.1
2011-08-02 14:27:22 51°16.723 2°36.88 307.1 1.7 26 29.4
2011-08-02 14:28:22 51°16.748 2°36.902 317.3 1.8 29 29.6
2011-08-02 14:29:22 51°16.774 2°36.926 327.5 1.8 29 29.6
2011-08-02 14:30:22 51°16.798 2°36.951 334.4 1.8 32 29.5
2011-08-02 14:31:22 51°16.82 2°36.975 336.1 1.6 38 30
2011-08-02 14:32:22 51°16.841 2°37.001 331.6 1.6 37 30.2
2011-08-02 14:33:22 51°16.861 2°37.028 325.2 1.6 40 30.4
2011-08-02 14:34:22 51°16.877 2°37.054 318.7 1.5 44 30.7
2011-08-02 14:35:22 51°16.897 2°37.083 311.9 1.5 44 30.8
2011-08-02 14:36:22 51°16.915 2°37.112 307 1.6 45 30.7
2011-08-02 14:37:22 51°16.934 2°37.143 302.1 1.6 48 30.9
2011-08-02 14:38:22 51°16.954 2°37.173 298.2 1.6 45 30.9
2011-08-02 14:39:22 51°16.989 2°37.167 307.1 4.1 335 31.3
2011-08-02 14:40:23 51°17.082 2°37.155 7.8 6.7 21 29.9
2011-08-02 14:41:22 51°17.142 2°37.291 99.7 6.8 88 29.6
2011-08-02 14:42:22 51°17.054 2°37.5 144.3 11.2 132 29.7
2011-08-02 14:43:22 51°16.965 2°37.797 121.7 12.9 116 30.1
2011-08-02 14:44:22 51°16.832 2°38.062 146.8 12.5 140 26.6
2011-08-02 14:45:22 51°16.689 2°38.204 181.6 5.7 167 17
2011-08-02 14:46:22 51°16.643 2°38.197 226.6 1.4 206 14.4
2011-08-02 14:47:22 51°16.638 2°38.195 251.9 0.4 12 14.7
2011-08-02 14:48:22 51°16.646 2°38.2 253.8 0.5 33 14.5
2011-08-02 14:49:22 51°16.653 2°38.209 246.6 0.5 44 14.4
2011-08-02 14:50:22 51°16.656 2°38.219 232.8 0.5 90 13.8
2011-08-02 14:51:22 51°16.653 2°38.237 212.4 0.8 117 12.8
2011-08-02 14:52:22 51°16.643 2°38.261 199.5 1.2 122 11.5
2011-08-02 14:53:22 51°16.631 2°38.286 201.4 1.1 132 12
2011-08-02 14:54:22 51°16.616 2°38.306 212.1 0.9 154 12.1
2011-08-02 14:55:22 51°16.608 2°38.308 236 0.3 187 12.1
2011-08-02 14:56:22 51°16.603 2°38.306 237.8 0.2 203 12.2
2011-08-02 14:57:22 51°16.599 2°38.302 237.2 0.4 204 12.2
2011-08-02 14:58:22 51°16.592 2°38.3 230.4 0.5 181 12
2011-08-02 14:59:22 51°16.581 2°38.302 219.6 0.8 166 12
2011-08-02 15:00:23 51°16.566 2°38.311 207.8 1.1 155 12.1
2011-08-02 15:01:22 51°16.549 2°38.327 205.9 1.1 147 11.9
2011-08-02 15:02:22 51°16.537 2°38.336 227.4 0.5 168 11.6
2011-08-02 15:03:22 51°16.535 2°38.334 252.2 0.2 302 11.8
2011-08-02 15:04:22 51°16.538 2°38.325 249.6 0.4 247 11.9
2011-08-02 15:05:22 51°16.511 2°38.33 181.8 3.3 150 11.7
2011-08-02 15:06:22 51°16.47 2°38.449 119.1 7.7 110 12.1
2011-08-02 15:07:22 51°16.405 2°38.694 117.3 11.7 112 13.1
2011-08-02 15:08:22 51°16.332 2°39.018 113.3 13.5 109 16.4
2011-08-02 15:09:22 51°16.256 2°39.353 114 13.4 110 20.6
2011-08-02 15:10:22 51°16.17 2°39.678 118.9 13.2 114 22.8
2011-08-02 15:11:22 51°16.083 2°40.002 118.1 13.3 113 23.2
2011-08-02 15:12:22 51°16.008 2°40.335 114.2 13.3 108 22.4
2011-08-02 15:13:22 51°15.933 2°40.665 117.7 13.2 112 20.3
2011-08-02 15:14:22 51°15.849 2°40.988 118.1 13.2 112 16.7
2011-08-02 15:15:22 51°15.77 2°41.311 114 13.2 110 14.2
2011-08-02 15:16:22 51°15.682 2°41.624 127.5 12.8 122 13.2
2011-08-02 15:17:22 51°15.567 2°41.911 125.6 12.8 122 12.9
2011-08-02 15:18:22 51°15.461 2°42.212 123.5 13 121 14.1
2011-08-02 15:19:22 51°15.343 2°42.499 127.7 13.1 122 14.6
2011-08-02 15:20:22 51°15.238 2°42.804 123.5 13.1 120 15.3
2011-08-02 15:21:22 51°15.132 2°43.109 123.5 13.2 117 16.2
2011-08-02 15:22:22 51°15.018 2°43.406 123.2 13.1 113 17.5
2011-08-02 15:23:22 51°14.997 2°43.763 93.4 13.9 89 20.5
2011-08-02 15:24:22 51°15.004 2°44.135 91.7 14 88 20.9
2011-08-02 15:25:22 51°15.007 2°44.504 93.6 13.9 90 19.8
2011-08-02 15:26:22 51°14.994 2°44.873 98.6 13.9 95 18.9
2011-08-02 15:27:22 51°14.98 2°45.243 97.5 13.9 92 17.6
2011-08-02 15:28:22 51°14.983 2°45.609 96.2 13.7 93 16.4
2011-08-02 15:29:22 51°14.971 2°45.971 93.9 13.6 89 14.4
2011-08-02 15:30:22 51°14.977 2°46.33 93 13.5 89 12.8
2011-08-02 15:31:22 51°14.965 2°46.684 95.9 13.3 91 12
2011-08-02 15:32:22 51°14.959 2°47.038 99.2 13.4 95 12.2
2011-08-02 15:33:22 51°14.955 2°47.39 92.1 13.3 89 14.3
2011-08-02 15:34:22 51°14.954 2°47.743 94.2 13.3 90 15.5
2011-08-02 15:35:22 51°14.95 2°48.096 95.7 13.2 92 15.5
2011-08-02 15:36:22 51°14.946 2°48.444 93.3 13.1 90 15
2011-08-02 15:37:22 51°14.94 2°48.79 97.8 13 95 15
2011-08-02 15:38:22 51°14.923 2°49.136 95.4 13.2 91 15.3
2011-08-02 15:39:22 51°14.93 2°49.486 91.8 13.1 88 15.2
2011-08-02 15:40:22 51°14.936 2°49.834 91.5 13.3 88 15
2011-08-02 15:41:22 51°14.933 2°50.184 95.4 13.2 91 14.9
2011-08-02 15:42:22 51°14.929 2°50.534 94 13.3 90 14.6
2011-08-02 15:43:22 51°14.937 2°50.884 91.5 12.6 89 14.3
2011-08-02 15:44:22 51°14.932 2°51.18 95.6 10.6 91 14
2011-08-02 15:45:22 51°14.93 2°51.458 93.5 10.4 89 13.8
2011-08-02 15:46:22 51°14.939 2°51.719 91.7 9 87 13.6
2011-08-02 15:47:23 51°14.944 2°51.948 93.8 8.2 90 13.3
2011-08-02 15:48:22 51°14.943 2°52.148 95.8 6.8 91 13
2011-08-02 15:49:23 51°14.942 2°52.32 93.5 6.1 89 13
2011-08-02 15:50:22 51°14.946 2°52.475 90.1 5.8 86 12.7
2011-08-02 15:51:22 51°14.951 2°52.627 92 5.5 87 12.7
2011-08-02 15:52:22 51°14.953 2°52.768 93.2 5.2 88 12.9
2011-08-02 15:53:22 51°14.956 2°52.905 93.9 5.1 88 12.5
2011-08-02 15:54:22 51°14.958 2°53.033 94.2 4.6 87 12.6
2011-08-02 15:55:22 51°14.962 2°53.147 94.7 3.9 87 12.6
2011-08-02 15:56:23 51°14.967 2°53.238 90 3.1 81 12.4
2011-08-02 15:57:22 51°14.976 2°53.307 89.8 2.4 81 12.5
2011-08-02 15:58:22 51°14.979 2°53.368 97.4 2.4 87 12.4
2011-08-02 15:59:22 51°14.977 2°53.443 109.3 3.5 99 12.3
2011-08-02 16:00:22 51°14.96 2°53.554 114.2 5.1 106 12.3
2011-08-02 16:01:22 51°14.931 2°53.712 114 7.4 108 12
2011-08-02 16:02:23 51°14.883 2°53.93 115.6 9.5 109 11.6
2011-08-02 16:03:22 51°14.828 2°54.182 116 10.6 111 11.9
2011-08-02 16:04:22 51°14.762 2°54.447 120.5 10.9 111 12.3
2011-08-02 16:05:22 51°14.687 2°54.717 123.2 11.4 116 13.3
2011-08-02 16:06:22 51°14.584 2°54.971 134.6 11.4 132 14
2011-08-02 16:07:22 51°14.43 2°55.146 148.7 11.4 147 13.4
2011-08-02 16:08:22 51°14.269 2°55.299 150.2 11.1 151 13.1
2011-08-02 16:09:23 51°14.114 2°55.419 155.9 8.8 156 -999
2011-08-02 16:10:22 51°13.996 2°55.505 156.5 7.6 156 13.4
2011-08-02 16:11:23 51°13.883 2°55.586 156.4 7 156 13.4
2011-08-02 16:12:23 51°13.781 2°55.67 148.3 6.7 146 13.5
2011-08-02 16:13:22 51°13.708 2°55.781 132.1 5.9 130 14
2011-08-02 16:14:22 51°13.655 2°55.894 123 4.6 122 12.4
2011-08-02 16:15:23 51°13.626 2°55.99 112.8 3.6 112 13.5
2011-08-02 16:16:22 51°13.611 2°56.058 111.3 1.1 107 10.2